sensor_id;sensor_type;location;lat;lon;timestamp;pressure;altitude;pressure_sealevel;temperature;humidity
68855;BME280;69984;-43.570;172.580;2024-03-08T00:01:34;102043.88;;;21.66;63.63
68855;BME280;69984;-43.570;172.580;2024-03-08T00:04:01;102038.53;;;21.66;60.12
68855;BME280;69984;-43.570;172.580;2024-03-08T00:06:28;102039.31;;;22.11;60.40
68855;BME280;69984;-43.570;172.580;2024-03-08T00:08:55;102038.44;;;21.60;60.85
68855;BME280;69984;-43.570;172.580;2024-03-08T00:11:22;102044.13;;;20.67;62.33
68855;BME280;69984;-43.570;172.580;2024-03-08T00:13:52;102039.28;;;21.46;63.13
68855;BME280;69984;-43.570;172.580;2024-03-08T00:16:23;102032.59;;;21.85;59.78
68855;BME280;69984;-43.570;172.580;2024-03-08T00:18:49;102038.41;;;22.61;59.85
68855;BME280;69984;-43.570;172.580;2024-03-08T00:21:16;102031.66;;;22.08;58.99
68855;BME280;69984;-43.570;172.580;2024-03-08T00:23:43;102030.13;;;21.84;58.52
68855;BME280;69984;-43.570;172.580;2024-03-08T00:26:10;102016.72;;;22.13;57.97
68855;BME280;69984;-43.570;172.580;2024-03-08T00:28:37;102019.13;;;22.44;58.86
68855;BME280;69984;-43.570;172.580;2024-03-08T00:31:04;101995.50;;;22.90;57.07
68855;BME280;69984;-43.570;172.580;2024-03-08T00:33:33;102001.56;;;21.99;56.90
68855;BME280;69984;-43.570;172.580;2024-03-08T00:36:00;101993.06;;;22.10;58.78
68855;BME280;69984;-43.570;172.580;2024-03-08T00:38:27;101995.31;;;21.92;59.52
68855;BME280;69984;-43.570;172.580;2024-03-08T00:40:54;101990.28;;;22.82;57.40
68855;BME280;69984;-43.570;172.580;2024-03-08T00:43:22;101991.50;;;22.58;55.87
68855;BME280;69984;-43.570;172.580;2024-03-08T00:45:48;101987.41;;;21.99;57.36
68855;BME280;69984;-43.570;172.580;2024-03-08T00:48:15;101983.88;;;22.13;58.63
68855;BME280;69984;-43.570;172.580;2024-03-08T00:50:42;101983.69;;;22.35;56.22
68855;BME280;69984;-43.570;172.580;2024-03-08T00:53:12;101983.69;;;22.35;55.95
68855;BME280;69984;-43.570;172.580;2024-03-08T00:55:39;101984.19;;;22.24;57.74
68855;BME280;69984;-43.570;172.580;2024-03-08T00:58:06;101977.97;;;22.66;55.48
68855;BME280;69984;-43.570;172.580;2024-03-08T01:00:35;101972.66;;;22.94;56.51
68855;BME280;69984;-43.570;172.580;2024-03-08T01:03:07;101977.38;;;22.43;54.85
68855;BME280;69984;-43.570;172.580;2024-03-08T01:05:34;101967.75;;;22.70;56.01
68855;BME280;69984;-43.570;172.580;2024-03-08T01:08:01;101974.91;;;22.90;53.94
68855;BME280;69984;-43.570;172.580;2024-03-08T01:10:29;101982.34;;;22.67;55.47
68855;BME280;69984;-43.570;172.580;2024-03-08T01:12:56;101966.50;;;22.66;55.25
68855;BME280;69984;-43.570;172.580;2024-03-08T01:15:25;101967.75;;;22.98;53.33
68855;BME280;69984;-43.570;172.580;2024-03-08T01:17:52;101971.41;;;22.62;54.54
68855;BME280;69984;-43.570;172.580;2024-03-08T01:20:20;101959.41;;;23.07;53.90
68855;BME280;69984;-43.570;172.580;2024-03-08T01:22:47;101978.50;;;23.38;52.98
68855;BME280;69984;-43.570;172.580;2024-03-08T01:25:14;101967.28;;;22.87;52.82
68855;BME280;69984;-43.570;172.580;2024-03-08T01:27:41;101967.97;;;22.68;52.94
68855;BME280;69984;-43.570;172.580;2024-03-08T01:30:08;101957.03;;;22.21;54.30
68855;BME280;69984;-43.570;172.580;2024-03-08T01:32:38;101953.56;;;21.84;56.42
68855;BME280;69984;-43.570;172.580;2024-03-08T01:35:06;101950.19;;;21.61;57.54
68855;BME280;69984;-43.570;172.580;2024-03-08T01:37:35;101949.97;;;21.77;56.90
68855;BME280;69984;-43.570;172.580;2024-03-08T01:40:03;101942.16;;;22.12;56.42
68855;BME280;69984;-43.570;172.580;2024-03-08T01:42:30;101955.63;;;21.89;56.13
68855;BME280;69984;-43.570;172.580;2024-03-08T01:44:57;101945.03;;;21.60;57.49
68855;BME280;69984;-43.570;172.580;2024-03-08T01:47:24;101937.13;;;22.02;55.96
68855;BME280;69984;-43.570;172.580;2024-03-08T01:49:51;101936.16;;;21.38;56.82
68855;BME280;69984;-43.570;172.580;2024-03-08T01:52:19;101931.16;;;21.06;56.42
68855;BME280;69984;-43.570;172.580;2024-03-08T01:54:47;101926.44;;;21.66;56.75
68855;BME280;69984;-43.570;172.580;2024-03-08T01:57:14;101915.13;;;21.85;54.71
68855;BME280;69984;-43.570;172.580;2024-03-08T01:59:41;101929.44;;;21.27;56.89
68855;BME280;69984;-43.570;172.580;2024-03-08T02:02:11;101919.06;;;21.68;56.29
68855;BME280;69984;-43.570;172.580;2024-03-08T02:04:41;101908.34;;;21.47;56.90
68855;BME280;69984;-43.570;172.580;2024-03-08T02:07:08;101916.63;;;21.52;55.81
68855;BME280;69984;-43.570;172.580;2024-03-08T02:09:35;101905.47;;;21.63;57.04
68855;BME280;69984;-43.570;172.580;2024-03-08T02:12:02;101904.66;;;21.84;55.87
68855;BME280;69984;-43.570;172.580;2024-03-08T02:14:29;101904.72;;;21.69;54.79
68855;BME280;69984;-43.570;172.580;2024-03-08T02:17:01;101915.25;;;21.56;55.12
68855;BME280;69984;-43.570;172.580;2024-03-08T02:19:28;101908.00;;;22.28;57.26
68855;BME280;69984;-43.570;172.580;2024-03-08T02:21:55;101915.13;;;22.21;54.10
68855;BME280;69984;-43.570;172.580;2024-03-08T02:24:22;101899.78;;;21.52;53.92
68855;BME280;69984;-43.570;172.580;2024-03-08T02:26:50;101910.16;;;21.61;53.16
68855;BME280;69984;-43.570;172.580;2024-03-08T02:29:17;101885.16;;;21.48;54.26
68855;BME280;69984;-43.570;172.580;2024-03-08T02:31:44;101894.56;;;21.43;54.19
68855;BME280;69984;-43.570;172.580;2024-03-08T02:34:11;101894.69;;;21.35;53.51
68855;BME280;69984;-43.570;172.580;2024-03-08T02:36:38;101887.97;;;21.61;55.76
68855;BME280;69984;-43.570;172.580;2024-03-08T02:39:05;101882.22;;;21.78;53.64
68855;BME280;69984;-43.570;172.580;2024-03-08T02:41:32;101881.59;;;21.76;52.71
68855;BME280;69984;-43.570;172.580;2024-03-08T02:43:59;101882.34;;;21.05;55.75
68855;BME280;69984;-43.570;172.580;2024-03-08T02:46:26;101876.34;;;21.32;56.68
68855;BME280;69984;-43.570;172.580;2024-03-08T02:48:53;101865.78;;;21.39;54.44
68855;BME280;69984;-43.570;172.580;2024-03-08T02:51:20;101872.59;;;21.41;54.54
68855;BME280;69984;-43.570;172.580;2024-03-08T02:53:47;101869.47;;;21.09;55.58
68855;BME280;69984;-43.570;172.580;2024-03-08T02:56:15;101865.25;;;20.70;55.62
68855;BME280;69984;-43.570;172.580;2024-03-08T02:58:43;101853.50;;;20.65;55.80
68855;BME280;69984;-43.570;172.580;2024-03-08T03:01:15;101841.81;;;20.95;56.34
68855;BME280;69984;-43.570;172.580;2024-03-08T03:03:42;101840.31;;;21.22;55.53
68855;BME280;69984;-43.570;172.580;2024-03-08T03:06:09;101828.72;;;21.29;54.49
68855;BME280;69984;-43.570;172.580;2024-03-08T03:08:36;101826.47;;;21.48;55.25
68855;BME280;69984;-43.570;172.580;2024-03-08T03:11:04;101829.03;;;21.20;54.83
68855;BME280;69984;-43.570;172.580;2024-03-08T03:13:31;101819.03;;;21.07;55.59
68855;BME280;69984;-43.570;172.580;2024-03-08T03:15:59;101824.47;;;20.40;55.97
68855;BME280;69984;-43.570;172.580;2024-03-08T03:18:26;101815.16;;;20.80;56.18
68855;BME280;69984;-43.570;172.580;2024-03-08T03:20:55;101818.28;;;20.84;55.54
68855;BME280;69984;-43.570;172.580;2024-03-08T03:23:22;101813.88;;;19.72;58.40
68855;BME280;69984;-43.570;172.580;2024-03-08T03:25:49;101812.84;;;19.51;59.17
68855;BME280;69984;-43.570;172.580;2024-03-08T03:28:17;101808.72;;;19.71;57.58
68855;BME280;69984;-43.570;172.580;2024-03-08T03:30:47;101806.34;;;19.53;59.18
68855;BME280;69984;-43.570;172.580;2024-03-08T03:33:14;101804.03;;;19.19;59.21
68855;BME280;69984;-43.570;172.580;2024-03-08T03:35:42;101795.31;;;19.33;58.53
68855;BME280;69984;-43.570;172.580;2024-03-08T03:38:10;101795.63;;;19.38;57.98
68855;BME280;69984;-43.570;172.580;2024-03-08T03:40:38;101804.25;;;19.10;59.40
68855;BME280;69984;-43.570;172.580;2024-03-08T03:43:06;101806.31;;;19.30;59.87
68855;BME280;69984;-43.570;172.580;2024-03-08T03:45:33;101803.19;;;19.95;58.94
68855;BME280;69984;-43.570;172.580;2024-03-08T03:48:05;101797.69;;;19.59;58.01
68855;BME280;69984;-43.570;172.580;2024-03-08T03:50:36;101791.19;;;19.31;60.15
68855;BME280;69984;-43.570;172.580;2024-03-08T03:53:04;101783.31;;;20.43;57.23
68855;BME280;69984;-43.570;172.580;2024-03-08T03:55:34;101783.91;;;19.25;58.54
68855;BME280;69984;-43.570;172.580;2024-03-08T03:58:03;101780.47;;;19.70;58.53
68855;BME280;69984;-43.570;172.580;2024-03-08T04:00:30;101786.34;;;19.34;59.77
68855;BME280;69984;-43.570;172.580;2024-03-08T04:02:57;101784.34;;;20.05;58.46
68855;BME280;69984;-43.570;172.580;2024-03-08T04:05:26;101782.72;;;18.96;60.70
68855;BME280;69984;-43.570;172.580;2024-03-08T04:07:53;101793.88;;;19.54;59.32
68855;BME280;69984;-43.570;172.580;2024-03-08T04:10:20;101788.16;;;19.42;59.83
68855;BME280;69984;-43.570;172.580;2024-03-08T04:12:47;101794.53;;;18.94;61.31
68855;BME280;69984;-43.570;172.580;2024-03-08T04:15:14;101785.38;;;19.58;59.31
68855;BME280;69984;-43.570;172.580;2024-03-08T04:17:41;101781.19;;;19.33;60.05
68855;BME280;69984;-43.570;172.580;2024-03-08T04:20:09;101778.13;;;19.89;60.03
68855;BME280;69984;-43.570;172.580;2024-03-08T04:22:39;101779.81;;;19.68;59.18
68855;BME280;69984;-43.570;172.580;2024-03-08T04:25:07;101784.97;;;20.07;57.85
68855;BME280;69984;-43.570;172.580;2024-03-08T04:27:36;101781.00;;;20.40;57.66
68855;BME280;69984;-43.570;172.580;2024-03-08T04:30:03;101779.81;;;19.68;58.85
68855;BME280;69984;-43.570;172.580;2024-03-08T04:32:30;101790.53;;;18.98;60.49
68855;BME280;69984;-43.570;172.580;2024-03-08T04:34:58;101782.50;;;19.37;60.37
68855;BME280;69984;-43.570;172.580;2024-03-08T04:37:27;101792.78;;;19.17;60.15
68855;BME280;69984;-43.570;172.580;2024-03-08T04:39:56;101787.84;;;18.67;61.02
68855;BME280;69984;-43.570;172.580;2024-03-08T04:42:23;101789.59;;;18.83;61.46
68855;BME280;69984;-43.570;172.580;2024-03-08T04:44:51;101782.22;;;18.93;60.72
68855;BME280;69984;-43.570;172.580;2024-03-08T04:47:19;101776.13;;;19.23;59.60
68855;BME280;69984;-43.570;172.580;2024-03-08T04:49:47;101785.84;;;19.62;59.36
68855;BME280;69984;-43.570;172.580;2024-03-08T04:52:14;101787.63;;;19.47;59.05
68855;BME280;69984;-43.570;172.580;2024-03-08T04:54:41;101785.66;;;19.86;58.60
68855;BME280;69984;-43.570;172.580;2024-03-08T04:57:08;101777.19;;;20.05;57.31
68855;BME280;69984;-43.570;172.580;2024-03-08T04:59:35;101783.06;;;20.15;56.90
68855;BME280;69984;-43.570;172.580;2024-03-08T05:02:02;101777.63;;;19.94;56.21
68855;BME280;69984;-43.570;172.580;2024-03-08T05:04:29;101783.31;;;19.68;57.83
68855;BME280;69984;-43.570;172.580;2024-03-08T05:06:56;101783.34;;;19.60;58.70
68855;BME280;69984;-43.570;172.580;2024-03-08T05:09:27;101788.69;;;19.29;59.32
68855;BME280;69984;-43.570;172.580;2024-03-08T05:11:55;101781.56;;;20.65;56.24
68855;BME280;69984;-43.570;172.580;2024-03-08T05:14:24;101787.47;;;19.85;56.03
68855;BME280;69984;-43.570;172.580;2024-03-08T05:16:51;101777.09;;;19.53;58.17
68855;BME280;69984;-43.570;172.580;2024-03-08T05:19:19;101783.28;;;19.15;58.95
68855;BME280;69984;-43.570;172.580;2024-03-08T05:21:47;101768.91;;;19.77;57.95
68855;BME280;69984;-43.570;172.580;2024-03-08T05:24:15;101777.91;;;19.54;57.37
68855;BME280;69984;-43.570;172.580;2024-03-08T05:26:43;101775.34;;;20.20;57.02
68855;BME280;69984;-43.570;172.580;2024-03-08T05:29:10;101780.38;;;20.67;55.51
68855;BME280;69984;-43.570;172.580;2024-03-08T05:31:48;101789.56;;;19.98;57.03
68855;BME280;69984;-43.570;172.580;2024-03-08T05:34:16;101787.97;;;19.35;57.65
68855;BME280;69984;-43.570;172.580;2024-03-08T05:36:44;101780.78;;;19.52;57.70
68855;BME280;69984;-43.570;172.580;2024-03-08T05:39:13;101786.00;;;19.60;58.09
68855;BME280;69984;-43.570;172.580;2024-03-08T05:41:40;101780.47;;;20.07;58.22
68855;BME280;69984;-43.570;172.580;2024-03-08T05:44:08;101781.38;;;19.31;58.57
68855;BME280;69984;-43.570;172.580;2024-03-08T05:46:35;101794.72;;;19.23;59.15
68855;BME280;69984;-43.570;172.580;2024-03-08T05:49:03;101791.59;;;18.81;60.63
68855;BME280;69984;-43.570;172.580;2024-03-08T05:51:34;101800.66;;;18.94;60.35
68855;BME280;69984;-43.570;172.580;2024-03-08T05:54:05;101804.25;;;19.10;60.13
68855;BME280;69984;-43.570;172.580;2024-03-08T05:56:33;101798.84;;;18.16;62.89
68855;BME280;69984;-43.570;172.580;2024-03-08T05:59:00;101802.84;;;17.63;64.72
68855;BME280;69984;-43.570;172.580;2024-03-08T06:01:27;101796.03;;;18.25;64.20
68855;BME280;69984;-43.570;172.580;2024-03-08T06:03:55;101802.88;;;18.12;63.67
68855;BME280;69984;-43.570;172.580;2024-03-08T06:06:26;101793.88;;;18.13;62.56
68855;BME280;69984;-43.570;172.580;2024-03-08T06:08:53;101795.06;;;18.02;64.06
68855;BME280;69984;-43.570;172.580;2024-03-08T06:11:23;101803.00;;;17.70;64.72
68855;BME280;69984;-43.570;172.580;2024-03-08T06:13:50;101806.50;;;18.03;64.13
68855;BME280;69984;-43.570;172.580;2024-03-08T06:16:17;101800.69;;;18.23;64.88
68855;BME280;69984;-43.570;172.580;2024-03-08T06:18:44;101791.09;;;17.74;65.30
68855;BME280;69984;-43.570;172.580;2024-03-08T06:21:13;101809.50;;;17.83;65.81
68855;BME280;69984;-43.570;172.580;2024-03-08T06:23:40;101798.97;;;17.33;67.84
68855;BME280;69984;-43.570;172.580;2024-03-08T06:26:10;101796.75;;;17.13;69.30
68855;BME280;69984;-43.570;172.580;2024-03-08T06:28:37;101793.78;;;16.48;69.65
68855;BME280;69984;-43.570;172.580;2024-03-08T06:31:04;101792.63;;;16.76;71.43
68855;BME280;69984;-43.570;172.580;2024-03-08T06:33:31;101779.97;;;16.36;72.86
68855;BME280;69984;-43.570;172.580;2024-03-08T06:36:01;101788.25;;;16.08;75.98
68855;BME280;69984;-43.570;172.580;2024-03-08T06:38:28;101785.03;;;15.61;78.72
68855;BME280;69984;-43.570;172.580;2024-03-08T06:40:56;101781.88;;;15.12;82.19
68855;BME280;69984;-43.570;172.580;2024-03-08T06:43:24;101786.88;;;14.78;85.88
68855;BME280;69984;-43.570;172.580;2024-03-08T06:45:58;101768.53;;;14.59;89.45
68855;BME280;69984;-43.570;172.580;2024-03-08T06:48:25;101756.88;;;14.52;89.91
68855;BME280;69984;-43.570;172.580;2024-03-08T06:50:52;101769.16;;;14.15;91.97
68855;BME280;69984;-43.570;172.580;2024-03-08T06:53:19;101767.94;;;13.90;96.56
68855;BME280;69984;-43.570;172.580;2024-03-08T06:55:46;101773.13;;;13.82;99.80
68855;BME280;69984;-43.570;172.580;2024-03-08T06:58:13;101779.63;;;13.78;100.00
68855;BME280;69984;-43.570;172.580;2024-03-08T07:00:40;101784.88;;;13.87;100.00
68855;BME280;69984;-43.570;172.580;2024-03-08T07:03:10;101787.66;;;13.76;100.00
68855;BME280;69984;-43.570;172.580;2024-03-08T07:05:43;101790.72;;;13.52;100.00
68855;BME280;69984;-43.570;172.580;2024-03-08T07:08:10;101781.69;;;13.55;100.00
68855;BME280;69984;-43.570;172.580;2024-03-08T07:10:40;101779.63;;;13.59;100.00
68855;BME280;69984;-43.570;172.580;2024-03-08T07:13:11;101789.59;;;13.55;100.00
68855;BME280;69984;-43.570;172.580;2024-03-08T07:15:38;101798.63;;;13.52;100.00
68855;BME280;69984;-43.570;172.580;2024-03-08T07:18:06;101793.63;;;13.59;100.00
68855;BME280;69984;-43.570;172.580;2024-03-08T07:20:35;101799.28;;;13.45;100.00
68855;BME280;69984;-43.570;172.580;2024-03-08T07:23:03;101796.94;;;13.51;100.00
68855;BME280;69984;-43.570;172.580;2024-03-08T07:25:30;101792.50;;;13.62;100.00
68855;BME280;69984;-43.570;172.580;2024-03-08T07:27:57;101788.91;;;13.53;100.00
68855;BME280;69984;-43.570;172.580;2024-03-08T07:30:27;101794.31;;;13.51;100.00
68855;BME280;69984;-43.570;172.580;2024-03-08T07:33:10;101796.75;;;13.15;100.00
68855;BME280;69984;-43.570;172.580;2024-03-08T07:35:38;101803.88;;;13.33;100.00
68855;BME280;69984;-43.570;172.580;2024-03-08T07:38:07;101806.50;;;13.33;100.00
68855;BME280;69984;-43.570;172.580;2024-03-08T07:40:39;101824.66;;;13.36;100.00
68855;BME280;69984;-43.570;172.580;2024-03-08T07:43:11;101816.19;;;13.33;100.00
68855;BME280;69984;-43.570;172.580;2024-03-08T07:45:38;101815.38;;;13.51;100.00
68855;BME280;69984;-43.570;172.580;2024-03-08T07:48:06;101817.72;;;13.45;100.00
68855;BME280;69984;-43.570;172.580;2024-03-08T07:50:38;101823.00;;;13.45;100.00
68855;BME280;69984;-43.570;172.580;2024-03-08T07:53:11;101823.72;;;13.47;100.00
68855;BME280;69984;-43.570;172.580;2024-03-08T07:55:38;101825.63;;;13.55;100.00
68855;BME280;69984;-43.570;172.580;2024-03-08T07:58:08;101829.22;;;13.34;100.00
68855;BME280;69984;-43.570;172.580;2024-03-08T08:00:37;101816.22;;;13.42;100.00
68855;BME280;69984;-43.570;172.580;2024-03-08T08:03:04;101826.72;;;13.33;100.00
68855;BME280;69984;-43.570;172.580;2024-03-08T08:05:31;101821.09;;;13.57;100.00
68855;BME280;69984;-43.570;172.580;2024-03-08T08:08:02;101827.97;;;13.38;100.00
68855;BME280;69984;-43.570;172.580;2024-03-08T08:10:33;101822.59;;;13.49;100.00
68855;BME280;69984;-43.570;172.580;2024-03-08T08:13:00;101831.78;;;13.65;100.00
68855;BME280;69984;-43.570;172.580;2024-03-08T08:15:30;101823.59;;;13.68;100.00
68855;BME280;69984;-43.570;172.580;2024-03-08T08:17:57;101815.25;;;13.53;100.00
68855;BME280;69984;-43.570;172.580;2024-03-08T08:20:24;101790.31;;;13.57;100.00
68855;BME280;69984;-43.570;172.580;2024-03-08T08:22:52;101798.06;;;13.39;100.00
68855;BME280;69984;-43.570;172.580;2024-03-08T08:25:20;101794.97;;;13.34;100.00
68855;BME280;69984;-43.570;172.580;2024-03-08T08:27:50;101794.72;;;13.37;100.00
68855;BME280;69984;-43.570;172.580;2024-03-08T08:30:18;101778.34;;;13.24;100.00
68855;BME280;69984;-43.570;172.580;2024-03-08T08:32:46;101761.19;;;13.39;100.00
68855;BME280;69984;-43.570;172.580;2024-03-08T08:35:14;101761.44;;;13.27;100.00
68855;BME280;69984;-43.570;172.580;2024-03-08T08:37:41;101772.84;;;13.37;100.00
68855;BME280;69984;-43.570;172.580;2024-03-08T08:40:09;101779.63;;;13.39;100.00
68855;BME280;69984;-43.570;172.580;2024-03-08T08:42:39;101780.44;;;13.49;100.00
68855;BME280;69984;-43.570;172.580;2024-03-08T08:45:07;101771.59;;;13.50;100.00
68855;BME280;69984;-43.570;172.580;2024-03-08T08:47:38;101774.63;;;13.36;100.00
68855;BME280;69984;-43.570;172.580;2024-03-08T08:50:09;101785.56;;;13.41;100.00
68855;BME280;69984;-43.570;172.580;2024-03-08T08:52:38;101786.69;;;13.48;100.00
68855;BME280;69984;-43.570;172.580;2024-03-08T08:55:06;101787.41;;;13.50;100.00
68855;BME280;69984;-43.570;172.580;2024-03-08T08:57:33;101785.84;;;13.48;100.00
68855;BME280;69984;-43.570;172.580;2024-03-08T09:00:02;101784.72;;;13.41;100.00
68855;BME280;69984;-43.570;172.580;2024-03-08T09:02:34;101795.03;;;13.44;100.00
68855;BME280;69984;-43.570;172.580;2024-03-08T09:05:01;101792.91;;;13.38;100.00
68855;BME280;69984;-43.570;172.580;2024-03-08T09:07:28;101772.41;;;13.51;100.00
68855;BME280;69984;-43.570;172.580;2024-03-08T09:09:55;101772.41;;;13.51;100.00
68855;BME280;69984;-43.570;172.580;2024-03-08T09:12:24;101769.91;;;13.49;100.00
68855;BME280;69984;-43.570;172.580;2024-03-08T09:14:51;101786.84;;;13.47;100.00
68855;BME280;69984;-43.570;172.580;2024-03-08T09:17:18;101781.97;;;13.52;100.00
68855;BME280;69984;-43.570;172.580;2024-03-08T09:19:49;101791.38;;;13.55;100.00
68855;BME280;69984;-43.570;172.580;2024-03-08T09:22:16;101784.22;;;13.47;100.00
68855;BME280;69984;-43.570;172.580;2024-03-08T09:24:44;101775.47;;;13.46;100.00
68855;BME280;69984;-43.570;172.580;2024-03-08T09:27:12;101772.00;;;13.46;100.00
68855;BME280;69984;-43.570;172.580;2024-03-08T09:29:42;101773.38;;;13.40;100.00
68855;BME280;69984;-43.570;172.580;2024-03-08T09:32:10;101774.47;;;13.38;100.00
68855;BME280;69984;-43.570;172.580;2024-03-08T09:34:40;101781.13;;;13.42;100.00
68855;BME280;69984;-43.570;172.580;2024-03-08T09:37:07;101775.19;;;13.49;100.00
68855;BME280;69984;-43.570;172.580;2024-03-08T09:39:35;101755.91;;;13.30;100.00
68855;BME280;69984;-43.570;172.580;2024-03-08T09:42:02;101748.13;;;13.28;100.00
68855;BME280;69984;-43.570;172.580;2024-03-08T09:44:29;101737.72;;;13.27;100.00
68855;BME280;69984;-43.570;172.580;2024-03-08T09:46:58;101732.63;;;13.25;100.00
68855;BME280;69984;-43.570;172.580;2024-03-08T09:49:26;101733.47;;;13.26;100.00
68855;BME280;69984;-43.570;172.580;2024-03-08T09:51:56;101724.16;;;13.31;100.00
68855;BME280;69984;-43.570;172.580;2024-03-08T09:54:26;101715.88;;;13.26;100.00
68855;BME280;69984;-43.570;172.580;2024-03-08T09:56:53;101719.47;;;13.25;100.00
68855;BME280;69984;-43.570;172.580;2024-03-08T09:59:21;101719.31;;;13.27;100.00
68855;BME280;69984;-43.570;172.580;2024-03-08T10:01:55;101721.09;;;13.17;100.00
68855;BME280;69984;-43.570;172.580;2024-03-08T10:04:31;101720.28;;;13.26;100.00
68855;BME280;69984;-43.570;172.580;2024-03-08T10:07:00;101719.84;;;13.30;100.00
68855;BME280;69984;-43.570;172.580;2024-03-08T10:09:27;101713.78;;;13.30;100.00
68855;BME280;69984;-43.570;172.580;2024-03-08T10:11:57;101711.97;;;13.30;100.00
68855;BME280;69984;-43.570;172.580;2024-03-08T10:14:25;101713.50;;;13.33;100.00
68855;BME280;69984;-43.570;172.580;2024-03-08T10:16:56;101700.75;;;13.38;100.00
68855;BME280;69984;-43.570;172.580;2024-03-08T10:19:27;101699.09;;;13.37;100.00
68855;BME280;69984;-43.570;172.580;2024-03-08T10:21:58;101702.00;;;13.43;100.00
68855;BME280;69984;-43.570;172.580;2024-03-08T10:24:25;101688.56;;;13.37;100.00
68855;BME280;69984;-43.570;172.580;2024-03-08T10:27:02;101678.59;;;13.40;100.00
68855;BME280;69984;-43.570;172.580;2024-03-08T10:29:33;101681.06;;;13.32;100.00
68855;BME280;69984;-43.570;172.580;2024-03-08T10:32:01;101680.81;;;13.26;100.00
68855;BME280;69984;-43.570;172.580;2024-03-08T10:34:29;101687.31;;;13.31;100.00
68855;BME280;69984;-43.570;172.580;2024-03-08T10:36:58;101676.78;;;13.31;100.00
68855;BME280;69984;-43.570;172.580;2024-03-08T10:39:36;101660.00;;;13.42;100.00
68855;BME280;69984;-43.570;172.580;2024-03-08T10:42:04;101665.00;;;13.35;100.00
68855;BME280;69984;-43.570;172.580;2024-03-08T10:47:18;101658.88;;;13.44;100.00
68855;BME280;69984;-43.570;172.580;2024-03-08T10:49:51;101666.91;;;13.52;100.00
68855;BME280;69984;-43.570;172.580;2024-03-08T10:52:21;101674.97;;;13.61;100.00
68855;BME280;69984;-43.570;172.580;2024-03-08T10:54:49;101675.63;;;13.63;100.00
68855;BME280;69984;-43.570;172.580;2024-03-08T10:57:18;101674.94;;;13.70;100.00
68855;BME280;69984;-43.570;172.580;2024-03-08T10:59:50;101673.13;;;13.71;100.00
68855;BME280;69984;-43.570;172.580;2024-03-08T11:02:19;101670.25;;;13.45;100.00
68855;BME280;69984;-43.570;172.580;2024-03-08T11:04:50;101655.31;;;13.36;100.00
68855;BME280;69984;-43.570;172.580;2024-03-08T11:07:20;101660.41;;;13.47;100.00
68855;BME280;69984;-43.570;172.580;2024-03-08T11:09:50;101647.66;;;13.42;100.00
68855;BME280;69984;-43.570;172.580;2024-03-08T11:12:24;101647.78;;;13.41;100.00
68855;BME280;69984;-43.570;172.580;2024-03-08T11:14:52;101641.28;;;13.35;100.00
68855;BME280;69984;-43.570;172.580;2024-03-08T11:20:00;101631.72;;;13.34;100.00
68855;BME280;69984;-43.570;172.580;2024-03-08T11:22:33;101636.72;;;13.37;100.00
68855;BME280;69984;-43.570;172.580;2024-03-08T11:25:02;101638.25;;;13.40;100.00
68855;BME280;69984;-43.570;172.580;2024-03-08T11:27:35;101637.56;;;13.28;100.00
68855;BME280;69984;-43.570;172.580;2024-03-08T11:30:07;101621.88;;;13.27;100.00
68855;BME280;69984;-43.570;172.580;2024-03-08T11:32:50;101637.00;;;13.25;100.00
68855;BME280;69984;-43.570;172.580;2024-03-08T11:35:20;101636.31;;;13.32;100.00
68855;BME280;69984;-43.570;172.580;2024-03-08T11:37:49;101625.38;;;13.37;100.00
68855;BME280;69984;-43.570;172.580;2024-03-08T11:40:17;101615.50;;;13.48;100.00
68855;BME280;69984;-43.570;172.580;2024-03-08T11:42:46;101601.91;;;13.53;100.00
68855;BME280;69984;-43.570;172.580;2024-03-08T11:45:18;101609.53;;;13.46;100.00
68855;BME280;69984;-43.570;172.580;2024-03-08T11:47:47;101607.19;;;13.43;100.00
68855;BME280;69984;-43.570;172.580;2024-03-08T11:50:15;101609.25;;;13.49;100.00
68855;BME280;69984;-43.570;172.580;2024-03-08T11:52:44;101621.47;;;13.50;100.00
68855;BME280;69984;-43.570;172.580;2024-03-08T11:55:11;101617.97;;;13.60;100.00
68855;BME280;69984;-43.570;172.580;2024-03-08T11:57:39;101610.75;;;13.62;100.00
68855;BME280;69984;-43.570;172.580;2024-03-08T12:00:06;101622.94;;;13.63;100.00
68855;BME280;69984;-43.570;172.580;2024-03-08T12:03:00;101619.91;;;13.67;100.00
68855;BME280;69984;-43.570;172.580;2024-03-08T12:05:27;101620.31;;;13.63;100.00
68855;BME280;69984;-43.570;172.580;2024-03-08T12:07:58;101614.66;;;13.58;100.00
68855;BME280;69984;-43.570;172.580;2024-03-08T12:10:25;101614.38;;;13.61;100.00
68855;BME280;69984;-43.570;172.580;2024-03-08T12:12:53;101612.28;;;13.55;100.00
68855;BME280;69984;-43.570;172.580;2024-03-08T12:15:22;101616.19;;;13.50;100.00
68855;BME280;69984;-43.570;172.580;2024-03-08T12:17:50;101599.97;;;13.45;100.00
68855;BME280;69984;-43.570;172.580;2024-03-08T12:20:22;101601.22;;;13.41;100.00
68855;BME280;69984;-43.570;172.580;2024-03-08T12:22:50;101599.03;;;13.37;100.00
68855;BME280;69984;-43.570;172.580;2024-03-08T12:25:25;101592.09;;;13.36;100.00
68855;BME280;69984;-43.570;172.580;2024-03-08T12:27:52;101593.22;;;13.33;100.00